createdAt,value
2022-10-17T00:01:41.520Z,791
2022-10-17T00:02:41.314Z,961
2022-10-17T00:03:41.275Z,1017
2022-10-17T00:04:41.322Z,983
2022-10-17T00:06:41.453Z,997
2022-10-17T00:07:41.273Z,1007
2022-10-17T00:08:41.274Z,763
2022-10-17T00:09:41.322Z,872
2022-10-17T00:11:41.462Z,1012
2022-10-17T00:12:41.362Z,1062
2022-10-17T00:13:41.322Z,1071
2022-10-17T00:14:41.282Z,821
2022-10-17T00:16:41.478Z,821
2022-10-17T00:17:41.335Z,1068
2022-10-17T00:18:41.330Z,802
2022-10-17T00:19:41.275Z,810
2022-10-17T00:21:41.467Z,1086
2022-10-17T00:22:41.292Z,1125
2022-10-17T00:23:41.327Z,846
2022-10-17T00:24:41.336Z,848
2022-10-17T00:26:41.465Z,897
2022-10-17T00:27:41.333Z,877
2022-10-17T00:28:41.328Z,967
2022-10-17T00:29:41.358Z,1062
2022-10-17T00:31:41.495Z,1074
2022-10-17T00:32:41.329Z,882
2022-10-17T00:33:41.284Z,882
2022-10-17T00:34:41.295Z,1195
2022-10-17T00:36:41.530Z,907
2022-10-17T00:37:41.279Z,1184
2022-10-17T00:38:41.285Z,1159
2022-10-17T00:39:41.279Z,895
2022-10-17T00:41:41.474Z,1178
2022-10-17T00:42:41.333Z,872
2022-10-17T00:43:41.283Z,806
2022-10-17T00:44:41.288Z,825
2022-10-17T00:46:41.481Z,1056
2022-10-17T00:47:41.293Z,1195
2022-10-17T00:48:41.303Z,918
2022-10-17T00:49:41.294Z,889
2022-10-17T00:51:41.498Z,1178
2022-10-17T00:52:41.346Z,909
2022-10-17T00:53:41.355Z,909
2022-10-17T00:54:41.341Z,1220
2022-10-17T00:56:41.578Z,923
2022-10-17T00:57:41.344Z,995
2022-10-17T00:58:41.352Z,1181
2022-10-17T00:59:41.349Z,913
2022-10-17T01:01:41.530Z,920
2022-10-17T01:02:41.349Z,1277
2022-10-17T01:03:41.345Z,920
2022-10-17T01:04:41.354Z,1181
2022-10-17T01:06:41.497Z,909
2022-10-17T01:07:41.349Z,1178
2022-10-17T01:08:41.358Z,1184
2022-10-17T01:09:41.301Z,895
2022-10-17T01:11:41.480Z,1159
2022-10-17T01:12:41.310Z,887
2022-10-17T01:13:41.352Z,870
2022-10-17T01:14:41.359Z,1156
2022-10-17T01:16:41.517Z,895
2022-10-17T01:17:41.309Z,1277
2022-10-17T01:18:41.306Z,1238
2022-10-17T01:19:41.353Z,1245
2022-10-17T01:21:41.491Z,1274
2022-10-17T01:22:41.352Z,1171
2022-10-17T01:23:41.362Z,1212
2022-10-17T01:24:41.357Z,915
2022-10-17T01:26:41.493Z,1056
2022-10-17T01:27:41.356Z,1356
2022-10-17T01:29:41.309Z,918
2022-10-17T01:31:41.517Z,1341
2022-10-17T01:32:41.367Z,1007
2022-10-17T01:33:41.305Z,1007
2022-10-17T01:34:41.354Z,1019
2022-10-17T01:36:41.503Z,1245
2022-10-17T01:37:41.386Z,1310
2022-10-17T01:38:41.320Z,1404
2022-10-17T01:39:42.719Z,1521
2022-10-17T01:41:41.500Z,1474
2022-10-17T01:42:41.313Z,1093
2022-10-17T01:43:41.324Z,1313
2022-10-17T01:44:41.313Z,1068
2022-10-17T01:46:41.504Z,1099
2022-10-17T01:47:41.371Z,1367
2022-10-17T01:48:41.371Z,1044
2022-10-17T01:49:41.364Z,1372
2022-10-17T01:51:41.506Z,1367
2022-10-17T01:52:41.319Z,983
2022-10-17T01:53:41.371Z,1310
2022-10-17T01:54:41.392Z,1310
2022-10-17T01:56:41.498Z,1238
2022-10-17T01:57:41.323Z,1436
2022-10-17T01:58:41.366Z,1110
2022-10-17T01:59:41.330Z,1436
2022-10-17T02:01:41.580Z,1086
2022-10-17T02:02:41.332Z,1380
2022-10-17T02:03:41.327Z,1252
2022-10-17T02:04:41.323Z,1436
2022-10-17T02:06:41.535Z,1445
2022-10-17T02:07:41.327Z,1041
2022-10-17T02:08:41.374Z,1639
2022-10-17T02:09:41.322Z,1697
2022-10-17T02:11:41.516Z,874
2022-10-17T02:12:41.406Z,1198
2022-10-17T02:13:41.377Z,1090
2022-10-17T02:14:41.402Z,1420
2022-10-17T02:16:41.512Z,1099
2022-10-17T02:17:41.383Z,1425
2022-10-17T02:18:41.402Z,1389
2022-10-17T02:19:41.338Z,1081
2022-10-17T02:21:41.578Z,1445
2022-10-17T02:22:41.335Z,1367
2022-10-17T02:23:41.363Z,1035
2022-10-17T02:24:41.395Z,1385
2022-10-17T02:26:41.584Z,1035
2022-10-17T02:27:41.410Z,1313
2022-10-17T02:28:41.437Z,1288
2022-10-17T02:29:41.403Z,1012
2022-10-17T02:31:41.521Z,1349
2022-10-17T02:32:41.711Z,1053
2022-10-17T02:33:41.333Z,1095
2022-10-17T02:34:41.388Z,1815
2022-10-17T02:36:41.538Z,1095
2022-10-17T02:37:41.338Z,1470
2022-10-17T02:38:41.387Z,1413
2022-10-17T02:39:41.342Z,1499
2022-10-17T02:41:41.587Z,1128
2022-10-17T02:42:41.385Z,1425
2022-10-17T02:43:41.381Z,1413
2022-10-17T02:44:41.413Z,1060
2022-10-17T02:46:41.520Z,1413
2022-10-17T02:47:41.386Z,1128
2022-10-17T02:48:41.342Z,1474
2022-10-17T02:49:41.387Z,1487
2022-10-17T02:51:41.524Z,1474
2022-10-17T02:52:41.394Z,1131
2022-10-17T02:53:41.387Z,1128
2022-10-17T02:54:41.343Z,1458
2022-10-17T02:56:41.593Z,1491
2022-10-17T02:57:41.395Z,1552
2022-10-17T02:58:41.350Z,1201
2022-10-17T02:59:41.404Z,1538
2022-10-17T03:01:41.598Z,1178
2022-10-17T03:02:41.355Z,1238
2022-10-17T03:03:41.350Z,1507
2022-10-17T03:04:41.355Z,1150
2022-10-17T03:06:41.553Z,1470
2022-10-17T03:07:41.350Z,1153
2022-10-17T03:08:41.363Z,1548
2022-10-17T03:09:41.381Z,1597
2022-10-17T03:11:41.598Z,1525
2022-10-17T03:12:41.356Z,1242
2022-10-17T03:13:41.402Z,1683
2022-10-17T03:14:41.415Z,1663
2022-10-17T03:16:41.547Z,1565
2022-10-17T03:17:41.453Z,1255
2022-10-17T03:18:43.412Z,1643
2022-10-17T03:19:41.357Z,1608
2022-10-17T03:21:41.546Z,1274
2022-10-17T03:22:41.404Z,1630
2022-10-17T03:23:41.400Z,1231
2022-10-17T03:24:41.401Z,1603
2022-10-17T03:26:41.574Z,1156
2022-10-17T03:27:41.421Z,1594
2022-10-17T03:28:41.431Z,1191
2022-10-17T03:29:41.413Z,1590
2022-10-17T03:31:41.606Z,1212
2022-10-17T03:32:41.368Z,1482
2022-10-17T03:33:41.410Z,1548
2022-10-17T03:34:41.438Z,1207
2022-10-17T03:36:41.550Z,1198
2022-10-17T03:37:41.409Z,1178
2022-10-17T03:38:41.367Z,1538
2022-10-17T03:39:41.409Z,1191
2022-10-17T03:41:41.569Z,1574
2022-10-17T03:42:41.441Z,1242
2022-10-17T03:43:41.420Z,1634
2022-10-17T03:44:41.378Z,1626
2022-10-17T03:46:41.550Z,1238
2022-10-17T03:47:41.416Z,1548
2022-10-17T03:48:41.372Z,1224
2022-10-17T03:49:41.415Z,1068
2022-10-17T03:51:41.559Z,1530
2022-10-17T03:52:41.375Z,1597
2022-10-17T03:53:41.375Z,1597
2022-10-17T03:54:41.413Z,1228
2022-10-17T03:56:41.567Z,1626
2022-10-17T03:57:42.278Z,1291
2022-10-17T03:58:41.428Z,1688
2022-10-17T03:59:41.376Z,1291
2022-10-17T04:01:41.676Z,1654
2022-10-17T04:02:41.384Z,1356
2022-10-17T04:03:41.382Z,1776
2022-10-17T04:04:41.416Z,1597
2022-10-17T04:06:41.558Z,1776
2022-10-17T04:07:41.376Z,1313
2022-10-17T04:08:41.383Z,1762
2022-10-17T04:09:41.424Z,1740
2022-10-17T04:11:41.654Z,1711
2022-10-17T04:12:41.379Z,1749
2022-10-17T04:13:41.431Z,1740
2022-10-17T04:14:41.383Z,1313
2022-10-17T04:16:41.561Z,1740
2022-10-17T04:17:41.422Z,1313
2022-10-17T04:18:41.378Z,1743
2022-10-17T04:19:41.383Z,1495
2022-10-17T04:21:41.622Z,1131
2022-10-17T04:22:41.434Z,1740
2022-10-17T04:23:41.396Z,1768
2022-10-17T04:24:41.382Z,1334
2022-10-17T04:26:41.580Z,1825
2022-10-17T04:27:41.447Z,1313
2022-10-17T04:28:41.391Z,1299
2022-10-17T04:29:41.387Z,1768
2022-10-17T04:31:41.572Z,1740
2022-10-17T04:32:41.437Z,1740
2022-10-17T04:33:41.465Z,1749
2022-10-17T04:34:41.434Z,1855
2022-10-17T04:36:41.587Z,1404
2022-10-17T04:37:41.465Z,1683
2022-10-17T04:38:41.435Z,1295
2022-10-17T04:39:41.388Z,1372
2022-10-17T04:41:41.583Z,1372
2022-10-17T04:42:41.464Z,1408
2022-10-17T04:43:42.185Z,1850
2022-10-17T04:44:41.458Z,1413
2022-10-17T04:46:41.611Z,1895
2022-10-17T04:47:41.404Z,1513
2022-10-17T04:48:41.397Z,1984
2022-10-17T04:51:41.606Z,1749
2022-10-17T04:52:41.471Z,1345
2022-10-17T04:53:41.445Z,1749
2022-10-17T04:54:41.439Z,1850
2022-10-17T04:56:41.582Z,1872
2022-10-17T04:57:41.391Z,1316
2022-10-17T04:58:41.446Z,1762
2022-10-17T04:59:41.402Z,1360
2022-10-17T05:01:41.606Z,1548
2022-10-17T05:02:41.478Z,1743
2022-10-17T05:03:41.449Z,1845
2022-10-17T05:04:41.471Z,1890
2022-10-17T05:06:41.603Z,1495
2022-10-17T05:07:41.445Z,1967
2022-10-17T05:08:41.454Z,1973
2022-10-17T05:09:41.453Z,1517
2022-10-17T05:11:41.609Z,1978
2022-10-17T05:12:41.395Z,1425
2022-10-17T05:13:41.450Z,1425
2022-10-17T05:14:41.454Z,1890
2022-10-17T05:16:41.651Z,1950
2022-10-17T05:17:41.408Z,1855
2022-10-17T05:18:41.456Z,1798
2022-10-17T05:19:41.454Z,1429
2022-10-17T05:21:41.595Z,1597
2022-10-17T05:22:42.103Z,1552
2022-10-17T05:23:41.463Z,1349
2022-10-17T05:24:41.471Z,1291
2022-10-17T05:26:41.624Z,1805
2022-10-17T05:27:41.462Z,1367
2022-10-17T05:28:41.548Z,1815
2022-10-17T05:29:41.411Z,1798
2022-10-17T05:31:41.624Z,1697
2022-10-17T05:32:41.495Z,1334
2022-10-17T05:33:41.463Z,1728
2022-10-17T05:34:41.411Z,1349
2022-10-17T05:36:41.695Z,1324
2022-10-17T05:37:41.472Z,1762
2022-10-17T05:38:41.469Z,1717
2022-10-17T05:39:41.462Z,981
2022-10-17T05:41:41.599Z,1702
2022-10-17T05:42:41.471Z,1759
2022-10-17T05:43:41.476Z,1324
2022-10-17T05:44:41.464Z,2220
2022-10-17T05:46:41.618Z,1334
2022-10-17T05:47:41.422Z,1717
2022-10-17T05:48:41.472Z,1735
2022-10-17T05:49:46.221Z,1310
2022-10-17T05:51:41.606Z,1697
2022-10-17T05:52:41.968Z,1238
2022-10-17T05:53:41.430Z,1621
2022-10-17T05:54:41.422Z,1621
2022-10-17T05:56:41.605Z,1212
2022-10-17T05:57:41.465Z,1773
2022-10-17T05:58:51.147Z,1773
2022-10-17T05:59:41.467Z,1321
2022-10-17T06:01:41.642Z,1787
2022-10-17T06:02:41.424Z,977
2022-10-17T06:03:41.472Z,1077
2022-10-17T06:04:41.482Z,1513
2022-10-17T06:06:41.634Z,1534
2022-10-17T06:07:41.482Z,1341
2022-10-17T06:08:41.482Z,990
2022-10-17T06:09:41.532Z,1534
2022-10-17T06:11:41.619Z,1153
2022-10-17T06:12:41.480Z,1525
2022-10-17T06:13:41.492Z,1513
2022-10-17T06:14:41.487Z,1147
2022-10-17T06:16:41.610Z,1482
2022-10-17T06:17:41.505Z,1376
2022-10-17T06:18:41.499Z,1380
2022-10-17T06:19:41.441Z,1385
2022-10-17T06:21:41.648Z,1056
2022-10-17T06:22:41.439Z,1470
2022-10-17T06:23:41.502Z,1062
2022-10-17T06:24:41.479Z,1400
2022-10-17T06:26:41.621Z,1385
2022-10-17T06:27:41.519Z,1113
2022-10-17T06:28:41.461Z,1499
2022-10-17T06:29:41.463Z,1458
2022-10-17T06:31:41.644Z,1413
2022-10-17T06:32:41.436Z,1416
2022-10-17T06:33:41.440Z,1416
2022-10-17T06:34:41.440Z,1065
2022-10-17T06:36:41.624Z,1389
2022-10-17T06:37:41.674Z,1274
2022-10-17T06:38:41.445Z,945
2022-10-17T06:39:41.451Z,1188
2022-10-17T06:41:41.718Z,798
2022-10-17T06:42:41.446Z,967
2022-10-17T06:43:41.447Z,1231
2022-10-17T06:44:41.458Z,1245
2022-10-17T06:46:41.643Z,954
2022-10-17T06:47:41.454Z,1262
2022-10-17T06:48:41.489Z,1191
2022-10-17T06:49:41.502Z,1224
2022-10-17T06:51:41.700Z,1168
2022-10-17T06:52:41.498Z,783
2022-10-17T06:53:41.505Z,1105
2022-10-17T06:54:41.501Z,1065
2022-10-17T06:56:41.728Z,1029
2022-10-17T06:57:41.490Z,844
2022-10-17T06:58:41.500Z,1125
2022-10-17T06:59:41.493Z,1086
2022-10-17T07:01:43.117Z,1086
2022-10-17T07:02:41.448Z,1095
2022-10-17T07:03:41.496Z,1102
2022-10-17T07:04:41.489Z,1099
2022-10-17T07:06:41.630Z,840
2022-10-17T07:07:43.113Z,1007
2022-10-17T07:08:41.503Z,1007
2022-10-17T07:09:41.455Z,1044
2022-10-17T07:11:41.650Z,754
2022-10-17T07:12:41.504Z,815
2022-10-17T07:13:41.458Z,1009
2022-10-17T07:14:41.501Z,1056
2022-10-17T07:16:41.641Z,1019
2022-10-17T07:17:41.465Z,746
2022-10-17T07:18:41.462Z,913
2022-10-17T07:19:41.513Z,977
2022-10-17T07:21:41.628Z,967
2022-10-17T07:22:41.470Z,872
2022-10-17T07:23:41.461Z,659
2022-10-17T07:24:41.548Z,671
2022-10-17T07:26:41.646Z,887
2022-10-17T07:27:41.478Z,872
2022-10-17T07:28:41.603Z,887
2022-10-17T07:29:41.507Z,909
2022-10-17T07:31:41.649Z,813
2022-10-17T07:32:41.470Z,865
2022-10-17T07:33:41.496Z,855
2022-10-17T07:34:41.477Z,827
2022-10-17T07:36:41.645Z,735
2022-10-17T07:37:41.466Z,732
2022-10-17T07:38:41.515Z,752
2022-10-17T07:39:41.524Z,728
2022-10-17T07:41:41.748Z,748
2022-10-17T07:42:41.534Z,719
2022-10-17T07:43:41.531Z,719
2022-10-17T07:44:41.524Z,744
2022-10-17T07:46:41.718Z,719
2022-10-17T07:47:41.471Z,692
2022-10-17T07:48:41.521Z,692
2022-10-17T07:49:41.498Z,700
2022-10-17T07:51:41.687Z,683
2022-10-17T07:52:41.483Z,692
2022-10-17T07:53:41.804Z,700
2022-10-17T07:54:41.473Z,699
2022-10-17T07:56:41.719Z,706
2022-10-17T07:57:41.485Z,615
2022-10-17T07:58:41.483Z,614
2022-10-17T07:59:41.482Z,592
2022-10-17T08:01:41.727Z,588
2022-10-17T08:02:41.484Z,596
2022-10-17T08:03:41.489Z,607
2022-10-17T08:04:41.528Z,615
2022-10-17T08:06:41.674Z,543
2022-10-17T08:07:41.528Z,659
2022-10-17T08:08:41.486Z,638
2022-10-17T08:09:41.529Z,645
2022-10-17T08:11:41.733Z,481
2022-10-17T08:12:41.490Z,623
2022-10-17T08:13:41.534Z,618
2022-10-17T08:14:41.493Z,556
2022-10-17T08:16:41.673Z,439
2022-10-17T08:17:41.490Z,444
2022-10-17T08:18:41.569Z,438
2022-10-17T08:19:41.502Z,438
2022-10-17T08:21:41.690Z,603
2022-10-17T08:22:41.505Z,485
2022-10-17T08:23:41.490Z,475
2022-10-17T08:24:41.501Z,660
2022-10-17T08:26:42.482Z,626
2022-10-17T08:27:42.510Z,580
2022-10-17T08:28:41.629Z,564
2022-10-17T08:29:41.566Z,564
2022-10-17T08:31:43.416Z,564
2022-10-17T08:32:41.565Z,561
2022-10-17T08:33:41.572Z,588
2022-10-17T08:34:41.551Z,603
2022-10-17T08:36:41.676Z,581
2022-10-17T08:37:41.544Z,480
2022-10-17T08:38:43.465Z,580
2022-10-17T08:39:41.553Z,589
2022-10-17T08:41:41.777Z,555
2022-10-17T08:42:41.548Z,498
2022-10-17T08:43:41.564Z,566
2022-10-17T08:44:41.556Z,566
2022-10-17T08:46:41.682Z,476
2022-10-17T08:47:41.506Z,620
2022-10-17T08:48:42.703Z,626
2022-10-17T08:49:41.501Z,603
2022-10-17T08:51:41.709Z,615
2022-10-17T08:52:41.555Z,578
2022-10-17T08:53:41.554Z,575
2022-10-17T08:54:41.516Z,578
2022-10-17T08:56:48.706Z,594
2022-10-17T08:57:41.509Z,600
2022-10-17T08:58:41.547Z,589
2022-10-17T08:59:41.552Z,492
2022-10-17T09:01:41.701Z,581
2022-10-17T09:02:41.587Z,605
2022-10-17T09:03:41.514Z,567
2022-10-17T09:04:41.589Z,433
2022-10-17T09:06:41.720Z,581
2022-10-17T09:07:41.590Z,553
2022-10-17T09:08:41.578Z,552
2022-10-17T09:09:41.568Z,555
2022-10-17T09:11:41.758Z,542
2022-10-17T09:12:41.573Z,438
2022-10-17T09:13:41.521Z,435
2022-10-17T09:14:41.563Z,584
2022-10-17T09:16:41.708Z,620
2022-10-17T09:17:41.518Z,683
2022-10-17T09:18:41.531Z,682
2022-10-17T09:19:41.515Z,518
2022-10-17T09:21:41.774Z,708
2022-10-17T09:22:41.577Z,640
2022-10-17T09:23:41.814Z,618
2022-10-17T09:24:41.576Z,624
2022-10-17T09:26:41.704Z,640
2022-10-17T09:27:41.522Z,441
2022-10-17T09:28:41.626Z,433
2022-10-17T09:29:43.782Z,542
2022-10-17T09:31:41.801Z,542
2022-10-17T09:32:41.597Z,603
2022-10-17T09:33:53.694Z,584
2022-10-17T09:34:41.527Z,586
2022-10-17T09:36:41.707Z,438
2022-10-17T09:37:41.532Z,428
2022-10-17T09:38:41.602Z,556
2022-10-17T09:39:41.542Z,500
2022-10-17T09:41:46.269Z,410
2022-10-17T09:42:41.577Z,418
2022-10-17T09:43:41.601Z,569
2022-10-17T09:44:41.582Z,596
2022-10-17T09:46:41.697Z,460
2022-10-17T09:47:41.536Z,438
2022-10-17T09:48:41.553Z,580
2022-10-17T09:49:41.540Z,603
2022-10-17T09:51:41.721Z,447
2022-10-17T09:52:41.586Z,612
2022-10-17T09:53:41.592Z,406
2022-10-17T09:54:41.535Z,460
2022-10-17T09:56:41.724Z,633
2022-10-17T09:57:41.591Z,584
2022-10-17T09:58:41.540Z,422
2022-10-17T09:59:41.582Z,428
2022-10-17T10:01:41.739Z,671
2022-10-17T10:02:41.630Z,656
2022-10-17T10:03:41.553Z,493
2022-10-17T10:05:02.959Z,666
2022-10-17T10:06:41.723Z,526
2022-10-17T10:07:41.592Z,780
2022-10-17T10:08:41.543Z,765
2022-10-17T10:09:41.548Z,785
2022-10-17T10:11:41.740Z,740
2022-10-17T10:12:41.604Z,702
2022-10-17T10:13:41.593Z,694
2022-10-17T10:14:42.128Z,646
2022-10-17T10:16:41.743Z,714
2022-10-17T10:17:41.567Z,726
2022-10-17T10:18:41.554Z,714
2022-10-17T10:19:41.597Z,536
2022-10-17T10:21:43.994Z,715
2022-10-17T10:22:41.654Z,646
2022-10-17T10:23:41.577Z,638
2022-10-17T10:24:41.607Z,551
2022-10-17T10:26:41.742Z,478
2022-10-17T10:27:41.559Z,638
2022-10-17T10:28:41.643Z,652
2022-10-17T10:29:41.613Z,660
2022-10-17T10:31:41.764Z,686
2022-10-17T10:32:41.614Z,480
2022-10-17T10:33:41.828Z,487
2022-10-17T10:34:41.560Z,650
2022-10-17T10:36:41.786Z,683
2022-10-17T10:37:41.570Z,633
2022-10-17T10:38:41.617Z,482
2022-10-17T10:39:41.637Z,640
2022-10-17T10:41:41.753Z,450
2022-10-17T10:42:41.613Z,572
2022-10-17T10:43:41.619Z,425
2022-10-17T10:44:41.616Z,432
2022-10-17T10:46:41.760Z,460
2022-10-17T10:47:41.614Z,410
2022-10-17T10:48:41.572Z,624
2022-10-17T10:49:41.579Z,652
2022-10-17T10:51:41.765Z,441
2022-10-17T10:52:41.618Z,674
2022-10-17T10:53:41.599Z,735
2022-10-17T10:54:41.574Z,565
2022-10-17T10:56:41.766Z,827
2022-10-17T10:57:41.621Z,688
2022-10-17T10:58:41.995Z,702
2022-10-17T10:59:41.630Z,638
2022-10-17T11:01:41.815Z,450
2022-10-17T11:02:41.579Z,682
2022-10-17T11:04:41.653Z,710
2022-10-17T11:06:41.822Z,637
2022-10-17T11:07:41.635Z,765
2022-10-17T11:08:41.630Z,706
2022-10-17T11:09:41.632Z,761
2022-10-17T11:11:41.782Z,733
2022-10-17T11:12:41.636Z,641
2022-10-17T11:13:41.592Z,668
2022-10-17T11:14:41.584Z,500
2022-10-17T11:16:41.760Z,783
2022-10-17T11:17:41.584Z,653
2022-10-17T11:18:41.653Z,421
2022-10-17T11:19:41.618Z,634
2022-10-17T11:22:41.604Z,618
2022-10-17T11:23:41.602Z,442
2022-10-17T11:24:41.592Z,620
2022-10-17T11:26:41.804Z,679
2022-10-17T11:27:41.597Z,502
2022-10-17T11:28:41.650Z,645
2022-10-17T11:29:41.638Z,649
2022-10-17T11:31:41.798Z,704
2022-10-17T11:32:41.597Z,545
2022-10-17T11:33:41.592Z,627
2022-10-17T11:34:41.585Z,456
2022-10-17T11:36:41.837Z,457
2022-10-17T11:37:41.594Z,631
2022-10-17T11:38:41.594Z,650
2022-10-17T11:39:41.620Z,700
2022-10-17T11:41:41.777Z,744
2022-10-17T11:42:41.646Z,463
2022-10-17T11:43:41.653Z,657
2022-10-17T11:44:41.608Z,678
2022-10-17T11:46:41.857Z,748
2022-10-17T11:47:41.616Z,589
2022-10-17T11:48:41.648Z,838
2022-10-17T11:49:42.160Z,596
2022-10-17T11:52:03.030Z,624
2022-10-17T11:52:55.757Z,905
2022-10-17T11:53:41.612Z,666
2022-10-17T11:54:41.607Z,798
2022-10-17T11:56:42.904Z,806
2022-10-17T11:57:41.684Z,1081
2022-10-17T11:58:41.658Z,1147
2022-10-17T11:59:41.614Z,800
2022-10-17T12:01:41.797Z,1255
2022-10-17T12:02:41.608Z,1071
2022-10-17T12:03:41.615Z,810
2022-10-17T12:04:44.792Z,1198
2022-10-17T12:06:41.811Z,1274
2022-10-17T12:08:41.664Z,1277
2022-10-17T12:09:41.663Z,1356
2022-10-17T12:11:41.865Z,1053
2022-10-17T12:12:41.626Z,1242
2022-10-17T12:13:41.665Z,1231
2022-10-17T12:14:41.644Z,1302
2022-10-17T12:17:41.670Z,1110
2022-10-17T12:18:41.698Z,1288
2022-10-17T12:19:41.670Z,1654
2022-10-17T12:21:42.841Z,1697
2022-10-17T12:22:41.623Z,1933
2022-10-17T12:23:41.671Z,2116
2022-10-17T12:24:41.622Z,2116
2022-10-17T12:26:41.803Z,1798
2022-10-17T12:27:41.626Z,2285
2022-10-17T12:28:41.682Z,1650
2022-10-17T12:29:41.742Z,2421
2022-10-17T12:31:41.812Z,2152
2022-10-17T12:33:00.284Z,2347
2022-10-17T12:33:41.626Z,1692
2022-10-17T12:36:41.843Z,2583
2022-10-17T12:37:41.693Z,2445
2022-10-17T12:38:41.682Z,2461
2022-10-17T12:39:41.631Z,2445
2022-10-17T12:41:41.820Z,2162
2022-10-17T12:42:41.685Z,2318
2022-10-17T12:43:44.071Z,1474
2022-10-17T12:44:41.639Z,1706
2022-10-17T12:46:41.824Z,2318
2022-10-17T12:47:41.644Z,2623
2022-10-17T12:48:41.691Z,2618
2022-10-17T12:49:41.648Z,2591
2022-10-17T12:51:41.832Z,2473
2022-10-17T12:52:41.694Z,2306
2022-10-17T12:53:41.646Z,1659
2022-10-17T12:54:47.005Z,2388
2022-10-17T12:56:41.826Z,2359
2022-10-17T12:57:41.693Z,2466
2022-10-17T12:58:41.701Z,2537
2022-10-17T12:59:41.647Z,1697
2022-10-17T13:01:41.914Z,1574
2022-10-17T13:02:41.698Z,2494
2022-10-17T13:03:41.702Z,1673
2022-10-17T13:04:41.692Z,2220
2022-10-17T13:06:41.832Z,1740
2022-10-17T13:07:41.716Z,2259
2022-10-17T13:08:41.700Z,1465
2022-10-17T13:09:41.712Z,1961
2022-10-17T13:11:41.860Z,1723
2022-10-17T13:12:41.699Z,1050
2022-10-17T13:13:41.724Z,1594
2022-10-17T13:14:41.732Z,1487
2022-10-17T13:16:41.902Z,909
2022-10-17T13:17:43.756Z,1174
2022-10-17T13:18:41.656Z,772
2022-10-17T13:19:41.709Z,983
2022-10-17T13:21:41.870Z,645
2022-10-17T13:22:41.711Z,927
2022-10-17T13:23:41.713Z,633
2022-10-17T13:24:41.707Z,798
2022-10-17T13:26:41.844Z,776
2022-10-17T13:27:41.668Z,536
2022-10-17T13:28:41.708Z,699
2022-10-17T13:29:41.675Z,536
2022-10-17T13:31:41.867Z,565
2022-10-17T13:32:41.665Z,649
2022-10-17T13:33:41.675Z,683
2022-10-17T13:34:41.671Z,678
2022-10-17T13:36:44.444Z,408
2022-10-17T13:37:41.734Z,697
2022-10-17T13:38:42.590Z,714
2022-10-17T13:39:55.100Z,515
2022-10-17T13:41:41.945Z,481
2022-10-17T13:42:41.670Z,627
2022-10-17T13:43:41.676Z,400
2022-10-17T13:44:43.401Z,611
2022-10-17T13:46:41.864Z,657
2022-10-17T13:47:41.673Z,787
2022-10-17T13:48:41.719Z,761
2022-10-17T13:49:41.731Z,553
2022-10-17T13:51:41.946Z,708
2022-10-17T13:52:41.724Z,454
2022-10-17T13:53:41.720Z,650
2022-10-17T13:54:41.688Z,679
2022-10-17T13:56:41.871Z,649
2022-10-17T13:57:41.675Z,599
2022-10-17T13:58:41.683Z,577
2022-10-17T13:59:41.726Z,591
2022-10-17T14:01:41.930Z,433
2022-10-17T14:02:41.732Z,414
2022-10-17T14:03:48.450Z,577
2022-10-17T14:05:04.917Z,597
2022-10-17T14:06:42.202Z,641
2022-10-17T14:08:06.092Z,575
2022-10-17T14:08:41.735Z,602
2022-10-17T14:09:41.743Z,460
2022-10-17T14:11:41.929Z,688
2022-10-17T14:12:41.687Z,682
2022-10-17T14:13:41.693Z,671
2022-10-17T14:14:58.296Z,846
2022-10-17T14:16:41.886Z,744
2022-10-17T14:17:41.737Z,549
2022-10-17T14:18:41.743Z,757
2022-10-17T14:19:41.756Z,572
2022-10-17T14:21:44.497Z,813
2022-10-17T14:22:41.712Z,629
2022-10-17T14:23:41.701Z,877
2022-10-17T14:24:41.688Z,909
2022-10-17T14:26:41.906Z,961
2022-10-17T14:27:41.749Z,954
2022-10-17T14:28:41.734Z,967
2022-10-17T14:29:41.774Z,706
2022-10-17T14:31:41.900Z,737
2022-10-17T14:32:41.753Z,793
2022-10-17T14:33:42.678Z,1125
2022-10-17T14:34:41.757Z,830
2022-10-17T14:36:41.895Z,1095
2022-10-17T14:37:41.749Z,776
2022-10-17T14:38:41.706Z,1044
2022-10-17T14:39:41.757Z,774
2022-10-17T14:41:43.439Z,872
2022-10-17T14:42:41.708Z,763
2022-10-17T14:43:41.751Z,719
2022-10-17T14:44:41.760Z,905
2022-10-17T14:46:41.951Z,802
2022-10-17T14:47:43.863Z,872
2022-10-17T14:48:41.768Z,615
2022-10-17T14:49:41.758Z,791
2022-10-17T14:51:50.144Z,543
2022-10-17T14:52:41.775Z,686
2022-10-17T14:53:41.747Z,660
2022-10-17T14:54:41.714Z,570
2022-10-17T14:56:41.901Z,577
2022-10-17T14:57:41.766Z,631
2022-10-17T14:58:41.716Z,631
2022-10-17T14:59:53.617Z,631
2022-10-17T15:01:41.966Z,631
2022-10-17T15:02:41.717Z,710
2022-10-17T15:03:41.834Z,710
2022-10-17T15:04:41.721Z,710
2022-10-17T15:06:41.920Z,710
2022-10-17T15:07:41.792Z,699
2022-10-17T15:09:41.722Z,699
2022-10-17T15:11:41.924Z,699
2022-10-17T15:12:47.877Z,706
2022-10-17T15:13:44.761Z,706
2022-10-17T15:14:41.735Z,706
2022-10-17T15:16:41.932Z,706
2022-10-17T15:17:41.781Z,717
2022-10-17T15:18:41.713Z,717
2022-10-17T15:19:41.722Z,717
2022-10-17T15:21:44.771Z,717
2022-10-17T15:22:41.721Z,880
2022-10-17T15:23:41.725Z,880
2022-10-17T15:24:41.778Z,880
2022-10-17T15:26:42.040Z,880
2022-10-17T15:27:41.774Z,868
2022-10-17T15:28:41.858Z,868
2022-10-17T15:29:41.787Z,868
2022-10-17T15:31:41.937Z,868
2022-10-17T15:32:41.784Z,851
2022-10-17T15:33:41.828Z,851
2022-10-17T15:34:41.824Z,851
2022-10-17T15:36:41.922Z,851
2022-10-17T15:37:41.789Z,851
2022-10-17T15:38:41.793Z,851
2022-10-17T15:39:41.803Z,851
2022-10-17T15:41:41.927Z,851
2022-10-17T15:42:41.779Z,920
2022-10-17T15:43:41.740Z,920
2022-10-17T15:44:41.750Z,920
2022-10-17T15:46:41.930Z,920
2022-10-17T15:47:41.743Z,970
2022-10-17T15:48:41.743Z,970
2022-10-17T15:49:41.749Z,970
2022-10-17T15:51:41.925Z,970
2022-10-17T15:52:41.747Z,970
2022-10-17T15:53:41.741Z,970
2022-10-17T15:54:41.819Z,970
2022-10-17T15:56:41.935Z,970
2022-10-17T15:57:41.787Z,970
2022-10-17T15:58:41.821Z,970
2022-10-17T15:59:41.746Z,970
2022-10-17T16:01:41.930Z,970
2022-10-17T16:02:41.796Z,970
2022-10-17T16:03:41.798Z,970
2022-10-17T16:04:41.802Z,970
2022-10-17T16:06:41.925Z,970
2022-10-17T16:07:41.752Z,970
2022-10-17T16:08:41.760Z,970
2022-10-17T16:09:41.825Z,970
2022-10-17T16:11:41.927Z,970
2022-10-17T16:12:41.826Z,1093
2022-10-17T16:13:41.751Z,1122
2022-10-17T16:14:41.767Z,1156
2022-10-17T16:16:41.937Z,1181
2022-10-17T16:17:41.796Z,1144
2022-10-17T16:18:41.797Z,1174
2022-10-17T16:19:41.830Z,1017
2022-10-17T16:21:41.992Z,1215
2022-10-17T16:22:41.803Z,1277
2022-10-17T16:23:41.756Z,1083
2022-10-17T16:24:41.812Z,1245
2022-10-17T16:26:42.007Z,1171
2022-10-17T16:27:42.018Z,1445
2022-10-17T16:28:45.258Z,1107
2022-10-17T16:29:41.760Z,1465
2022-10-17T16:31:42.004Z,1470
2022-10-17T16:32:41.763Z,1552
2022-10-17T16:33:41.770Z,1597
2022-10-17T16:34:41.769Z,1558
2022-10-17T16:36:41.960Z,1669
2022-10-17T16:37:41.811Z,1855
2022-10-17T16:38:41.776Z,1825
2022-10-17T16:39:41.781Z,1855
2022-10-17T16:41:41.963Z,1905
2022-10-17T16:42:41.773Z,1400
2022-10-17T16:43:41.822Z,1872
2022-10-17T16:44:41.770Z,1921
2022-10-17T16:46:41.972Z,1507
2022-10-17T16:47:41.820Z,1702
2022-10-17T16:48:41.778Z,2162
2022-10-17T16:49:43.034Z,2359
2022-10-17T16:51:42.023Z,2189
2022-10-17T16:52:41.777Z,2214
2022-10-17T16:53:41.772Z,1683
2022-10-17T16:54:41.832Z,2226
2022-10-17T16:56:42.020Z,1584
2022-10-17T16:57:41.797Z,2012
2022-10-17T16:58:41.820Z,1590
2022-10-17T16:59:41.781Z,1678
2022-10-17T17:01:41.967Z,1762
2022-10-17T17:02:41.776Z,1432
2022-10-17T17:03:41.794Z,2285
2022-10-17T17:04:41.824Z,1990
2022-10-17T17:06:42.036Z,1692